createdAt,value
2018-05-14T00:02:34.274Z,21.78
2018-05-14T00:17:34.066Z,21.75
2018-05-14T00:32:34.239Z,21.83
2018-05-14T00:47:36.410Z,21.81
2018-05-14T01:02:34.558Z,21.81
2018-05-14T01:17:34.355Z,21.83
2018-05-14T01:32:34.296Z,21.79
2018-05-14T01:47:34.674Z,21.73
2018-05-14T02:02:34.874Z,21.81
2018-05-14T02:17:34.632Z,21.76
2018-05-14T02:32:34.594Z,21.74
2018-05-14T02:47:33.998Z,21.79
2018-05-14T03:02:33.962Z,20.46
2018-05-14T03:17:34.188Z,18.94
2018-05-14T03:32:36.106Z,18.01
2018-05-14T03:47:36.506Z,17.52
2018-05-14T04:02:46.256Z,17.27
2018-05-14T04:17:36.537Z,17.28
2018-05-14T04:32:36.182Z,17.13
2018-05-14T04:47:36.509Z,17.28
2018-05-14T05:02:34.754Z,17.55
2018-05-14T05:17:34.623Z,17.72
2018-05-14T05:32:34.428Z,17.79
2018-05-14T05:47:34.827Z,18.10
2018-05-14T06:02:35.012Z,18.29
2018-05-14T06:17:34.974Z,19.40
2018-05-14T06:32:35.416Z,20.72
2018-05-14T06:47:36.350Z,22.40
2018-05-14T07:02:36.037Z,23.65
2018-05-14T07:17:34.804Z,24.86
2018-05-14T07:32:35.833Z,25.59
2018-05-14T07:47:34.691Z,26.63
2018-05-14T08:02:34.646Z,27.65
2018-05-14T08:17:35.193Z,27.45
2018-05-14T08:32:34.957Z,27.54
2018-05-14T08:47:35.091Z,27.30
2018-05-14T09:02:34.943Z,27.26
2018-05-14T09:17:34.778Z,25.97
2018-05-14T09:32:34.752Z,25.52
2018-05-14T09:47:35.219Z,26.69
2018-05-14T10:02:36.738Z,27.26
2018-05-14T10:17:36.270Z,27.39
2018-05-14T10:32:35.686Z,27.74
2018-05-14T10:47:34.497Z,26.68
2018-05-14T11:02:34.625Z,25.03
2018-05-14T11:17:35.896Z,23.65
2018-05-14T11:32:34.655Z,22.74
2018-05-14T11:47:35.082Z,22.18
2018-05-14T12:02:34.794Z,22.42
2018-05-14T12:17:36.158Z,22.42
2018-05-14T12:32:34.893Z,22.96
2018-05-14T12:47:34.350Z,23.05
2018-05-14T13:02:34.813Z,22.62
2018-05-14T13:17:34.829Z,22.15
2018-05-14T13:32:34.812Z,21.87
2018-05-14T13:47:35.138Z,21.90
2018-05-14T14:02:36.822Z,21.96
2018-05-14T14:17:35.089Z,21.96
2018-05-14T14:32:35.094Z,21.84
2018-05-14T14:47:34.601Z,21.74
2018-05-14T15:02:36.567Z,21.68
2018-05-14T15:17:37.502Z,21.59
2018-05-14T15:32:34.784Z,21.47
2018-05-14T15:47:34.842Z,21.24
2018-05-14T16:02:34.891Z,21.90
2018-05-14T16:17:36.716Z,21.51
2018-05-14T16:32:37.184Z,21.07
2018-05-14T16:47:35.041Z,20.76
2018-05-14T17:02:35.035Z,20.55
2018-05-14T17:17:37.116Z,20.43
2018-05-14T17:32:34.366Z,20.28
2018-05-14T17:47:34.490Z,20.25
2018-05-14T18:02:33.832Z,20.18
2018-05-14T18:17:34.383Z,20.03
2018-05-14T18:32:36.840Z,19.90
2018-05-14T18:47:35.965Z,19.84
2018-05-14T19:02:37.872Z,19.76
2018-05-14T19:17:40.584Z,19.64
2018-05-14T19:32:37.086Z,19.48
2018-05-14T19:47:35.066Z,19.24
2018-05-14T20:02:34.931Z,19.14
2018-05-14T20:17:35.072Z,19.08
2018-05-14T20:32:33.920Z,19.03
2018-05-14T20:47:38.914Z,18.93
2018-05-14T21:02:33.851Z,18.78
2018-05-14T21:17:34.458Z,18.73
2018-05-14T21:32:36.847Z,18.92
2018-05-14T21:47:36.814Z,19.06
2018-05-14T22:02:36.392Z,19.06
2018-05-14T22:17:35.173Z,19.02
2018-05-14T22:32:38.267Z,18.99
2018-05-14T22:47:34.935Z,19.05
2018-05-14T23:02:35.199Z,18.99
2018-05-14T23:17:37.272Z,19.03
2018-05-14T23:32:34.423Z,19.10
2018-05-14T23:47:38.266Z,19.20
